Home   Weather   Germany   Erlangen   Past weeks
Flag for Germany

Past Weather in Erlangen, Bavaria, Germany — Yesterday and Last 2 Weeks

Currently: 63 °F. Clear. (Weather station: Nuernberg, Germany). See more current weather

Past Weather in Erlangen — Graph

°F

Erlangen Temperature Yesterday

Maximum temperature yesterday: 72 °F (at 2:50 pm)
Minimum temperature yesterday: 55 °F (at 6:20 am)
Average temperature yesterday: 61 °F

High & Low Weather Summary for the Past Weeks

 TemperatureHumidityPressure
High82 °F (Jul 24, 2:50 pm)100% (Jul 21, 3:20 am)30.21 "Hg (Jul 21, 3:20 am)
Low50 °F (Jul 21, 5:50 am)36% (Jul 21, 6:50 pm)29.77 "Hg (Jul 30, 6:20 pm)
Average66 °F71%29.97 "Hg
* Reported Jul 19 10:20 pm — Aug 3 10:50 pm, Erlangen. Weather by CustomWeather, © 2021

Note: Actual official high and low records may vary slightly from our data, if they occured in-between our weather recording intervals... More about our weather records

Erlangen Weather History for the Previous 24 Hours

Scroll right to see more
 ConditionsComfort  
Time TempWeatherWind HumidityBarometerVisibility
10:50 pm
Tue, Aug 3
63 °FClear.8 mph73%29.95 "Hg10 mi
10:20 pm63 °FPassing clouds.3 mph73%29.95 "HgN/A
9:50 pm63 °FPassing clouds.3 mph73%29.95 "HgN/A
8:50 pm66 °FScattered showers. Scattered clouds.8 mph60%29.92 "HgN/A
8:20 pm66 °FScattered showers. Passing clouds.7 mph60%29.92 "HgN/A
7:50 pm68 °FPassing clouds.8 mph60%29.92 "HgN/A
7:20 pm68 °FPassing clouds.6 mph60%29.92 "HgN/A
6:50 pm68 °FPassing clouds.8 mph60%29.92 "HgN/A
6:20 pm70 °FPassing clouds.9 mph57%29.92 "HgN/A
5:50 pm68 °FPassing clouds.6 mph60%29.92 "HgN/A
5:20 pm68 °FPassing clouds.3 mph64%29.92 "HgN/A
4:50 pm68 °FPassing clouds.1 mph64%29.95 "HgN/A
4:20 pm66 °FPassing clouds.3 mph73%29.95 "HgN/A
3:50 pm63 °FPassing clouds.2 mph77%29.95 "HgN/A
3:20 pm59 °FThundershowers. Passing clouds.3 mph94%29.95 "HgN/A
2:50 pm57 °FThunderstorms. Broken clouds.21 mph94%29.95 "Hg3 mi
2:20 pm72 °FPassing clouds.8 mph53%29.95 "HgN/A
1:50 pm70 °FPassing clouds.8 mph57%29.95 "HgN/A
1:20 pm68 °FPassing clouds.8 mph60%29.95 "HgN/A
12:50 pm68 °FPassing clouds.6 mph60%29.98 "HgN/A
12:20 pm68 °FPassing clouds.6 mph60%29.98 "HgN/A
11:50 am68 °FPassing clouds.3 mph60%29.98 "HgN/A
11:20 am68 °FPassing clouds.6 mph60%29.98 "HgN/A
10:50 am66 °FPassing clouds.5 mph64%29.98 "HgN/A
10:20 am64 °FPassing clouds.2 mph73%30.01 "HgN/A
9:50 am64 °FPassing clouds.3 mph73%30.01 "HgN/A
9:20 am63 °FPassing clouds.2 mph77%30.01 "HgN/A
8:50 am61 °FPassing clouds.5 mph77%30.01 "HgN/A
8:20 am59 °FPassing clouds.6 mph82%30.01 "HgN/A
7:50 am55 °FPassing clouds.6 mph94%30.01 "HgN/A
7:20 am54 °FSunny.6 mph94%30.01 "Hg10 mi
6:50 am52 °FSunny.6 mph94%30.01 "Hg10 mi
6:20 am50 °FSunny.7 mph100%30.01 "Hg10 mi
5:50 am50 °FSunny.7 mph100%30.01 "Hg10 mi
5:20 am52 °FClear.6 mph94%30.01 "Hg10 mi
4:50 am52 °FClear.6 mph94%30.01 "Hg10 mi
4:20 am52 °FClear.7 mph94%30.01 "Hg10 mi
3:50 am52 °FClear.7 mph94%30.01 "Hg10 mi
3:20 am52 °FClear.8 mph94%30.01 "Hg10 mi
2:50 am52 °FClear.7 mph100%30.01 "Hg10 mi
1:50 am54 °FClear.5 mph94%30.01 "Hg10 mi
1:20 am54 °FClear.3 mph94%30.01 "Hg10 mi
12:50 am55 °FClear.3 mph88%30.01 "Hg10 mi
12:20 am55 °FPassing clouds.5 mph88%30.01 "HgN/A
11:50 pm
Mon, Aug 2
55 °FClear.3 mph94%30.01 "Hg10 mi
11:20 pm55 °FClear.2 mph94%30.01 "Hg10 mi
Weather by CustomWeather, © 2021

See weather overview